Time;durP1;ratioP1;P1;durP2;ratioP2;P2;SDS_P1;SDS_P2;PMS_P1;PMS_P2;Temp;Humidity;BMP_temperature;BMP_pressure;BME280_temperature;BME280_humidity;BME280_pressure;Samples;Min_cycle;Max_cycle;Signal;HPM_P1;HPM_P2
2023/02/01 06:40:05;;;;;;;;;48.25;45.00;;;;;;;;5083650;28;13425;-65
2023/02/01 06:42:31;;;;;;;;;39.00;35.50;;;;;;;;5087075;28;9560;-62
2023/02/01 06:44:56;;;;;;;;;37.25;32.50;;;;;;;;5081351;28;8837;-65
2023/02/01 06:47:21;;;;;;;;;42.25;41.00;;;;;;;;5068580;28;8846;-65
2023/02/01 06:49:46;;;;;;;;;47.75;41.00;;;;;;;;5066375;28;8955;-63
2023/02/01 06:52:12;;;;;;;;;39.75;36.25;;;;;;;;5086125;28;8800;-63
2023/02/01 06:54:37;;;;;;;;;41.50;39.75;;;;;;;;5085942;28;9547;-64
2023/02/01 06:57:03;;;;;;;;;45.25;40.25;;;;;;;;5035364;28;10378;-65
2023/02/01 06:59:28;;;;;;;;;37.50;36.25;;;;;;;;5047868;28;8833;-65
2023/02/01 07:01:53;;;;;;;;;48.50;37.50;;;;;;;;5065720;28;9512;-66
2023/02/01 07:04:18;;;;;;;;;48.75;45.50;;;;;;;;5065831;28;8825;-63
2023/02/01 07:06:44;;;;;;;;;43.00;35.00;;;;;;;;5065158;28;8786;-65
2023/02/01 07:09:09;;;;;;;;;45.75;44.50;;;;;;;;5046991;28;8883;-63
2023/02/01 07:11:34;;;;;;;;;48.25;43.50;;;;;;;;5065074;28;9578;-65
2023/02/01 07:14:00;;;;;;;;;47.25;41.25;;;;;;;;5064900;28;8925;-64
2023/02/01 07:16:25;;;;;;;;;51.50;44.00;;;;;;;;5058587;28;8796;-65
2023/02/01 07:18:51;;;;;;;;;50.25;39.75;;;;;;;;5046754;28;9040;-64
2023/02/01 07:21:16;;;;;;;;;50.00;45.00;;;;;;;;5047253;28;8937;-64
2023/02/01 07:23:42;;;;;;;;;57.50;46.50;;;;;;;;5054446;28;8953;-67
2023/02/01 07:26:09;;;;;;;;;48.25;44.75;;;;;;;;5056212;28;8828;-66
2023/02/01 07:28:35;;;;;;;;;48.00;43.00;;;;;;;;5051445;28;8830;-67
2023/02/01 07:31:03;;;;;;;;;66.00;50.00;;;;;;;;5054284;28;8913;-67
2023/02/01 07:33:29;;;;;;;;;66.00;51.00;;;;;;;;5056089;28;8812;-67
2023/02/01 07:35:54;;;;;;;;;62.00;51.00;;;;;;;;5045327;28;8768;-66
2023/02/01 07:38:21;;;;;;;;;69.75;56.50;;;;;;;;5044889;28;9605;-64
2023/02/01 07:40:46;;;;;;;;;66.75;56.00;;;;;;;;5045365;28;8839;-65
2023/02/01 07:43:11;;;;;;;;;66.50;51.00;;;;;;;;5045517;28;8931;-64
2023/02/01 07:45:37;;;;;;;;;44.25;36.25;;;;;;;;5044905;28;8803;-64
2023/02/01 07:48:02;;;;;;;;;62.75;50.50;;;;;;;;5044946;28;9567;-65
2023/02/01 07:50:28;;;;;;;;;68.00;54.25;;;;;;;;5037044;28;9006;-65
2023/02/01 07:52:53;;;;;;;;;72.25;54.00;;;;;;;;5031678;28;8823;-65
2023/02/01 07:55:19;;;;;;;;;60.50;49.50;;;;;;;;5032012;28;8835;-65
2023/02/01 07:57:45;;;;;;;;;62.50;49.00;;;;;;;;5032073;28;8815;-66
2023/02/01 08:02:57;;;;;;;;;62.00;52.00;;;;;;;;5040369;28;8911;-65
2023/02/01 08:05:22;;;;;;;;;57.25;48.25;;;;;;;;5040363;28;8793;-65
2023/02/01 08:07:48;;;;;;;;;60.50;52.50;;;;;;;;5041740;28;8988;-64
2023/02/01 08:10:14;;;;;;;;;53.75;46.50;;;;;;;;5039556;28;8850;-65
2023/02/01 08:12:40;;;;;;;;;67.00;53.00;;;;;;;;5042331;28;8802;-66
2023/02/01 08:15:06;;;;;;;;;58.50;49.00;;;;;;;;5040552;28;8906;-64
2023/02/01 08:17:31;;;;;;;;;64.75;50.75;;;;;;;;5041078;28;8929;-65
2023/02/01 08:19:57;;;;;;;;;67.25;57.25;;;;;;;;5023914;28;8905;-64
2023/02/01 08:22:22;;;;;;;;;68.50;57.00;;;;;;;;5039946;28;8822;-64
2023/02/01 08:24:48;;;;;;;;;66.25;53.75;;;;;;;;5041599;28;8795;-65
2023/02/01 08:27:13;;;;;;;;;58.50;50.50;;;;;;;;5041504;28;9547;-64
2023/02/01 08:29:39;;;;;;;;;58.00;50.00;;;;;;;;5051342;28;8812;-64
2023/02/01 08:32:04;;;;;;;;;65.25;54.50;;;;;;;;5051050;28;9552;-65
2023/02/01 08:34:29;;;;;;;;;69.50;54.00;;;;;;;;5042795;28;8827;-65
2023/02/01 08:36:58;;;;;;;;;63.25;50.50;;;;;;;;5030856;28;9527;-64
2023/02/01 08:39:23;;;;;;;;;63.50;52.00;;;;;;;;5036056;28;8847;-63
2023/02/01 08:42:50;;;;;;;;;66.75;54.00;;;;;;;;5037527;28;8806;-64
2023/02/01 08:44:33;;;;;;;;;66.25;54.25;;;;;;;;5031136;28;8836;-62
2023/02/01 08:46:59;;;;;;;;;63.75;54.00;;;;;;;;5033080;28;8806;-63
2023/02/01 08:49:24;;;;;;;;;84.50;66.00;;;;;;;;5048396;28;8806;-63
2023/02/01 08:51:49;;;;;;;;;62.67;52.33;;;;;;;;5050840;28;8844;-64
2023/02/01 08:54:15;;;;;;;;;65.33;49.00;;;;;;;;5050745;28;8953;-63
2023/02/01 08:56:40;;;;;;;;;55.67;49.00;;;;;;;;5037443;28;8864;-63
2023/02/01 08:59:05;;;;;;;;;64.67;51.67;;;;;;;;5050529;28;8928;-64
2023/02/01 09:01:30;;;;;;;;;57.67;46.67;;;;;;;;5049233;28;8790;-64
2023/02/01 09:03:55;;;;;;;;;52.33;47.33;;;;;;;;5050141;28;9793;-66
2023/02/01 09:06:21;;;;;;;;;51.33;44.67;;;;;;;;5050402;28;8790;-64
2023/02/01 09:08:46;;;;;;;;;48.33;45.33;;;;;;;;5048528;28;8830;-64
2023/02/01 09:11:13;;;;;;;;;47.00;43.00;;;;;;;;5031026;28;8801;-64
2023/02/01 09:13:38;;;;;;;;;54.33;48.33;;;;;;;;5028854;28;9543;-64
2023/02/01 09:16:04;;;;;;;;;54.67;48.00;;;;;;;;5028627;28;8825;-64
2023/02/01 09:18:29;;;;;;;;;49.00;43.00;;;;;;;;5028408;28;9601;-64
2023/02/01 09:20:54;;;;;;;;;56.33;48.33;;;;;;;;5028670;28;8796;-63
2023/02/01 09:23:20;;;;;;;;;60.67;51.00;;;;;;;;5011863;28;8824;-64
2023/02/01 09:25:45;;;;;;;;;58.67;49.33;;;;;;;;5030541;28;8816;-63
2023/02/01 09:28:10;;;;;;;;;66.00;52.00;;;;;;;;5029184;28;8797;-64
2023/02/01 09:30:37;;;;;;;;;57.67;50.33;;;;;;;;5028989;28;8851;-64
2023/02/01 09:33:02;;;;;;;;;62.00;54.00;;;;;;;;5030117;28;8911;-64
2023/02/01 09:35:27;;;;;;;;;64.00;51.33;;;;;;;;5029918;28;8769;-64
2023/02/01 09:37:53;;;;;;;;;60.67;49.00;;;;;;;;5029590;28;8816;-64
2023/02/01 09:40:18;;;;;;;;;67.00;54.00;;;;;;;;5029101;28;8838;-63
2023/02/01 09:42:49;;;;;;;;;70.67;54.00;;;;;;;;5029876;28;8899;-63
2023/02/01 09:45:34;;;;;;;;;61.00;51.67;;;;;;;;5028859;28;8803;-63
2023/02/01 09:48:02;;;;;;;;;58.00;52.00;;;;;;;;5028968;28;8765;-64
2023/02/01 09:50:33;;;;;;;;;57.33;49.00;;;;;;;;5029165;28;9511;-63
2023/02/01 09:53:04;;;;;;;;;60.00;52.00;;;;;;;;5029027;28;8855;-63
2023/02/01 09:55:32;;;;;;;;;60.67;49.00;;;;;;;;5028966;28;8823;-63
2023/02/01 09:58:11;;;;;;;;;59.00;52.00;;;;;;;;5028619;28;9586;-66
2023/02/01 10:00:38;;;;;;;;;58.00;50.33;;;;;;;;5029174;28;8821;-65
2023/02/01 10:03:04;;;;;;;;;71.00;56.00;;;;;;;;5029321;28;8805;-65
2023/02/01 10:05:49;;;;;;;;;59.00;52.33;;;;;;;;5029304;28;8805;-66
2023/02/01 10:08:30;;;;;;;;;65.33;52.00;;;;;;;;5028402;28;8797;-65
2023/02/01 10:10:59;;;;;;;;;59.33;51.33;;;;;;;;5029078;28;8805;-65
2023/02/01 10:13:27;;;;;;;;;62.33;50.67;;;;;;;;5029259;28;8797;-65
2023/02/01 10:16:11;;;;;;;;;62.67;54.00;;;;;;;;5028514;28;8821;-65
2023/02/01 10:18:45;;;;;;;;;57.67;47.67;;;;;;;;5028771;28;8861;-64
2023/02/01 10:21:18;;;;;;;;;71.33;56.67;;;;;;;;5028721;28;9633;-65
2023/02/01 10:23:43;;;;;;;;;68.00;54.00;;;;;;;;5027860;28;8894;-63
2023/02/01 10:26:12;;;;;;;;;68.33;56.67;;;;;;;;5026748;28;8817;-63
2023/02/01 10:28:38;;;;;;;;;54.33;50.00;;;;;;;;5025618;28;8925;-63
2023/02/01 10:31:05;;;;;;;;;60.33;52.00;;;;;;;;5033606;28;8812;-63
2023/02/01 10:33:33;;;;;;;;;62.00;53.00;;;;;;;;5037358;28;8789;-64
2023/02/01 10:36:03;;;;;;;;;64.33;47.67;;;;;;;;5030574;28;8805;-66
2023/02/01 10:38:30;;;;;;;;;61.00;52.33;;;;;;;;5029004;28;8817;-63
2023/02/01 10:40:59;;;;;;;;;70.67;57.00;;;;;;;;5028958;28;8819;-63
2023/02/01 10:43:24;;;;;;;;;60.33;53.00;;;;;;;;5046793;28;8833;-63
2023/02/01 10:45:49;;;;;;;;;60.67;49.00;;;;;;;;5044380;28;8809;-63
2023/02/01 10:48:15;;;;;;;;;63.33;53.33;;;;;;;;5028790;28;8809;-63
2023/02/01 10:50:44;;;;;;;;;64.33;53.00;;;;;;;;5011328;28;8856;-63
2023/02/01 10:53:16;;;;;;;;;21.67;14.33;;;;;;;;5028646;28;8789;-63
2023/02/01 10:55:45;;;;;;;;;71.33;57.00;;;;;;;;5011094;28;8939;-64
2023/02/01 10:58:31;;;;;;;;;56.33;47.33;;;;;;;;5029042;28;8878;-62
2023/02/01 11:00:56;;;;;;;;;65.33;53.00;;;;;;;;5029258;28;8793;-64
2023/02/01 11:03:40;;;;;;;;;63.33;50.33;;;;;;;;5029088;28;8803;-64
2023/02/01 11:06:17;;;;;;;;;60.00;53.33;;;;;;;;5029120;28;8773;-64
2023/02/01 11:08:48;;;;;;;;;58.00;48.67;;;;;;;;5028730;28;8935;-64
2023/02/01 11:11:13;;;;;;;;;65.00;51.67;;;;;;;;5010922;28;8824;-63
2023/02/01 11:13:39;;;;;;;;;61.00;50.67;;;;;;;;5028843;28;8878;-63
2023/02/01 11:16:05;;;;;;;;;63.67;50.00;;;;;;;;5028471;28;8843;-63
2023/02/01 11:18:34;;;;;;;;;57.67;48.00;;;;;;;;5028726;28;8825;-64
2023/02/01 11:21:00;;;;;;;;;54.67;48.00;;;;;;;;5028587;28;8793;-64
2023/02/01 11:23:27;;;;;;;;;64.33;47.67;;;;;;;;5028830;28;9666;-64
2023/02/01 11:25:54;;;;;;;;;50.67;46.67;;;;;;;;5030714;28;8789;-62
2023/02/01 11:28:22;;;;;;;;;57.00;49.33;;;;;;;;5031923;28;8837;-63
2023/02/01 11:30:48;;;;;;;;;56.33;48.00;;;;;;;;5032287;28;8809;-63
2023/02/01 11:33:17;;;;;;;;;51.67;46.33;;;;;;;;5032886;28;8824;-63
2023/02/01 11:35:43;;;;;;;;;58.33;50.33;;;;;;;;5032277;28;8801;-64
2023/02/01 11:38:14;;;;;;;;;53.67;46.00;;;;;;;;5032355;28;8805;-63
2023/02/01 11:40:39;;;;;;;;;58.00;47.33;;;;;;;;5032316;28;8805;-63
2023/02/01 11:43:07;;;;;;;;;54.67;48.67;;;;;;;;5032115;28;8832;-62
2023/02/01 11:45:34;;;;;;;;;64.33;51.00;;;;;;;;5031729;28;9756;-63
2023/02/01 11:48:00;;;;;;;;;60.33;50.00;;;;;;;;5032131;28;8801;-63
2023/02/01 11:50:48;;;;;;;;;61.33;50.33;;;;;;;;5031869;28;8837;-63
2023/02/01 11:53:14;;;;;;;;;58.33;48.00;;;;;;;;5032117;28;8823;-63
2023/02/01 11:55:57;;;;;;;;;62.33;49.67;;;;;;;;5032140;28;9543;-63
2023/02/01 11:58:41;;;;;;;;;67.33;51.33;;;;;;;;5031804;28;8805;-62
2023/02/01 12:01:12;;;;;;;;;65.00;51.33;;;;;;;;5031855;28;8809;-63
2023/02/01 12:03:49;;;;;;;;;59.67;48.00;;;;;;;;5031753;28;8885;-63
2023/02/01 12:06:14;;;;;;;;;59.33;49.33;;;;;;;;5016667;28;8831;-65
2023/02/01 12:09:01;;;;;;;;;48.67;45.33;;;;;;;;5051407;28;8814;-64
2023/02/01 12:11:29;;;;;;;;;63.67;48.00;;;;;;;;5051908;28;8806;-64
2023/02/01 12:14:02;;;;;;;;;60.33;50.00;;;;;;;;5051763;28;9563;-65
2023/02/01 12:16:45;;;;;;;;;57.00;47.67;;;;;;;;5041652;28;8813;-65
2023/02/01 12:19:17;;;;;;;;;64.33;51.33;;;;;;;;5036999;28;8804;-64
2023/02/01 12:21:58;;;;;;;;;64.33;50.33;;;;;;;;5030596;28;8807;-65
2023/02/01 12:24:32;;;;;;;;;62.67;50.00;;;;;;;;5030293;28;8851;-66
2023/02/01 12:27:16;;;;;;;;;61.33;50.00;;;;;;;;5030719;28;8817;-65
2023/02/01 12:29:51;;;;;;;;;57.00;45.33;;;;;;;;5030398;28;8821;-66
2023/02/01 12:32:16;;;;;;;;;58.33;47.00;;;;;;;;5030646;28;8842;-64
2023/02/01 12:34:42;;;;;;;;;55.33;47.00;;;;;;;;5029920;28;8809;-63
2023/02/01 12:37:26;;;;;;;;;58.33;49.67;;;;;;;;5029493;28;8804;-63
2023/02/01 12:39:51;;;;;;;;;54.67;46.67;;;;;;;;5028006;28;8824;-63
2023/02/01 12:42:21;;;;;;;;;54.33;46.67;;;;;;;;5029471;28;8841;-63
2023/02/01 12:44:51;;;;;;;;;53.67;45.00;;;;;;;;5026062;28;8828;-64
2023/02/01 12:47:17;;;;;;;;;57.00;47.33;;;;;;;;5029526;28;9908;-64
2023/02/01 12:49:54;;;;;;;;;46.33;41.00;;;;;;;;5029432;28;8837;-64
2023/02/01 12:52:24;;;;;;;;;50.00;46.33;;;;;;;;5029365;28;8811;-63
2023/02/01 12:55:00;;;;;;;;;59.33;49.00;;;;;;;;5029537;28;8898;-64
2023/02/01 12:57:31;;;;;;;;;55.00;45.00;;;;;;;;5025045;28;8847;-64
2023/02/01 13:00:15;;;;;;;;;55.33;44.00;;;;;;;;5029637;28;8848;-63
2023/02/01 13:02:49;;;;;;;;;51.33;45.00;;;;;;;;5028705;28;8821;-63
2023/02/01 13:05:17;;;;;;;;;49.33;44.00;;;;;;;;5029367;28;8800;-65
2023/02/01 13:07:42;;;;;;;;;54.33;45.33;;;;;;;;5029300;28;8800;-64
2023/02/01 13:10:13;;;;;;;;;53.00;44.00;;;;;;;;5029428;28;8841;-66
2023/02/01 13:13:00;;;;;;;;;52.00;44.33;;;;;;;;5029009;28;8827;-65
2023/02/01 13:15:25;;;;;;;;;48.67;42.00;;;;;;;;5026876;28;8831;-65
2023/02/01 13:17:53;;;;;;;;;56.67;47.67;;;;;;;;5028263;28;8805;-65
2023/02/01 13:20:25;;;;;;;;;52.67;45.33;;;;;;;;5029254;28;8813;-64
2023/02/01 13:22:54;;;;;;;;;47.67;42.33;;;;;;;;5029353;28;8831;-65
2023/02/01 13:25:27;;;;;;;;;49.67;42.00;;;;;;;;5029970;28;11594;-66
2023/02/01 13:27:54;;;;;;;;;49.67;40.67;;;;;;;;5030132;28;8801;-62
2023/02/01 13:30:42;;;;;;;;;48.00;43.67;;;;;;;;5029993;28;11624;-62
2023/02/01 13:33:27;;;;;;;;;46.25;37.75;;;;;;;;5029454;28;11617;-63
2023/02/01 13:36:11;;;;;;;;;40.75;37.75;;;;;;;;5011857;28;12352;-63
2023/02/01 13:38:39;;;;;;;;;42.67;40.33;;;;;;;;5029873;28;12366;-64
2023/02/01 13:41:07;;;;;;;;;44.00;39.00;;;;;;;;5029921;28;11687;-63
2023/02/01 13:43:33;;;;;;;;;41.00;37.00;;;;;;;;5029972;28;11572;-63
2023/02/01 13:46:10;;;;;;;;;52.33;42.00;;;;;;;;5029772;28;11579;-64
2023/02/01 13:48:35;;;;;;;;;38.00;33.50;;;;;;;;5029289;28;8932;-63
2023/02/01 13:51:00;;;;;;;;;29.50;28.00;;;;;;;;5029645;28;11573;-64
2023/02/01 13:53:31;;;;;;;;;44.25;37.50;;;;;;;;5024969;28;8922;-63
2023/02/01 13:56:01;;;;;;;;;32.33;28.33;;;;;;;;5028469;28;8804;-64
2023/02/01 13:58:31;;;;;;;;;37.75;35.00;;;;;;;;5028499;28;11754;-63
2023/02/01 14:01:16;;;;;;;;;33.67;32.33;;;;;;;;5010562;28;12185;-64
2023/02/01 14:03:45;;;;;;;;;34.67;31.33;;;;;;;;5025648;28;11509;-63
2023/02/01 14:06:32;;;;;;;;;28.00;25.00;;;;;;;;5028140;28;11547;-64
2023/02/01 14:09:09;;;;;;;;;19.00;16.00;;;;;;;;5028452;28;11624;-64
2023/02/01 14:11:35;;;;;;;;;20.50;16.50;;;;;;;;5028725;28;11458;-64
2023/02/01 14:14:12;;;;;;;;;20.75;16.75;;;;;;;;5025668;28;11678;-64
2023/02/01 14:16:38;;;;;;;;;11.50;10.25;;;;;;;;5028434;28;8821;-65
2023/02/01 14:19:07;;;;;;;;;12.50;12.50;;;;;;;;5028774;28;11552;-64
2023/02/01 14:21:35;;;;;;;;;15.50;11.00;;;;;;;;5028783;28;8908;-64
2023/02/01 14:24:10;;;;;;;;;15.25;11.00;;;;;;;;5028741;28;11660;-63
2023/02/01 14:26:38;;;;;;;;;8.50;5.00;;;;;;;;5028760;28;11463;-63
2023/02/01 14:29:16;;;;;;;;;6.50;6.50;;;;;;;;5026728;28;11552;-64
2023/02/01 14:31:42;;;;;;;;;7.25;7.00;;;;;;;;5028775;28;11556;-64
2023/02/01 14:34:18;;;;;;;;;10.75;9.00;;;;;;;;5028167;28;11595;-64
2023/02/01 14:36:48;;;;;;;;;9.00;9.00;;;;;;;;5025762;28;8935;-64
2023/02/01 14:39:21;;;;;;;;;9.00;7.00;;;;;;;;5027443;28;11452;-64
2023/02/01 14:41:47;;;;;;;;;7.75;7.00;;;;;;;;5026574;28;11615;-64
2023/02/01 14:44:15;;;;;;;;;13.00;5.00;;;;;;;;5028439;28;11441;-63
2023/02/01 14:46:59;;;;;;;;;6.50;6.50;;;;;;;;5010455;28;8840;-65
2023/02/01 14:49:28;;;;;;;;;3.75;2.50;;;;;;;;5008776;28;11562;-64
2023/02/01 14:51:53;;;;;;;;;4.00;1.50;;;;;;;;5008798;28;11411;-64
2023/02/01 14:54:19;;;;;;;;;6.50;4.00;;;;;;;;5017829;28;11494;-64
2023/02/01 14:56:45;;;;;;;;;7.00;5.00;;;;;;;;5028327;28;8886;-64
2023/02/01 14:59:15;;;;;;;;;4.50;2.50;;;;;;;;5028082;28;8833;-64
2023/02/01 15:01:48;;;;;;;;;4.25;4.25;;;;;;;;5031072;28;11459;-64
2023/02/01 15:04:18;;;;;;;;;4.00;4.00;;;;;;;;5029082;28;11543;-64
2023/02/01 15:06:48;;;;;;;;;4.25;4.25;;;;;;;;5032673;28;11523;-64
2023/02/01 15:09:28;;;;;;;;;7.00;7.00;;;;;;;;5032183;28;11565;-64
2023/02/01 15:12:15;;;;;;;;;11.25;8.75;;;;;;;;5032559;28;11469;-63
2023/02/01 15:14:42;;;;;;;;;7.00;7.00;;;;;;;;5032548;28;11465;-63
2023/02/01 15:17:20;;;;;;;;;7.75;5.00;;;;;;;;5032150;28;11561;-63
2023/02/01 15:19:55;;;;;;;;;7.00;5.00;;;;;;;;5032405;28;11488;-65
2023/02/01 15:22:20;;;;;;;;;6.50;5.00;;;;;;;;5032188;28;11499;-65
2023/02/01 15:24:52;;;;;;;;;8.75;8.75;;;;;;;;5032175;28;11519;-65
2023/02/01 15:27:17;;;;;;;;;7.75;7.00;;;;;;;;5032158;28;8817;-65
2023/02/01 15:29:43;;;;;;;;;11.50;8.25;;;;;;;;5032182;28;12260;-64
2023/02/01 15:32:27;;;;;;;;;8.00;6.00;;;;;;;;5032141;28;8797;-65
2023/02/01 15:34:52;;;;;;;;;8.00;8.00;;;;;;;;5032950;28;8831;-64
2023/02/01 15:37:21;;;;;;;;;6.00;5.00;;;;;;;;5031786;28;11472;-66
2023/02/01 15:40:07;;;;;;;;;4.00;3.50;;;;;;;;5032271;28;8930;-67
2023/02/01 15:42:33;;;;;;;;;5.00;4.00;;;;;;;;5031748;28;10951;-66
2023/02/01 15:44:59;;;;;;;;;7.25;4.50;;;;;;;;5013924;28;11479;-68
2023/02/01 15:47:25;;;;;;;;;8.75;6.75;;;;;;;;5013600;28;8879;-67
2023/02/01 15:49:53;;;;;;;;;5.50;5.50;;;;;;;;5031809;28;8837;-67
2023/02/01 15:52:39;;;;;;;;;15.75;9.00;;;;;;;;5031571;28;11574;-67
2023/02/01 15:55:23;;;;;;;;;6.50;5.00;;;;;;;;5032208;28;11527;-65
2023/02/01 15:57:49;;;;;;;;;8.75;8.00;;;;;;;;5013317;28;11493;-68
2023/02/01 16:00:25;;;;;;;;;6.50;6.50;;;;;;;;5030189;28;11450;-67
2023/02/01 16:03:00;;;;;;;;;13.75;10.75;;;;;;;;5011760;28;8821;-67
2023/02/01 16:05:29;;;;;;;;;7.50;7.50;;;;;;;;5029147;28;11661;-67
2023/02/01 16:08:03;;;;;;;;;7.50;7.00;;;;;;;;5010079;28;11586;-66
2023/02/01 16:10:29;;;;;;;;;7.75;7.75;;;;;;;;5027865;28;11428;-67
2023/02/01 16:12:58;;;;;;;;;10.75;8.00;;;;;;;;5027964;28;12380;-66
2023/02/01 16:15:23;;;;;;;;;11.25;11.25;;;;;;;;5028047;28;8842;-67
2023/02/01 16:17:49;;;;;;;;;12.75;10.00;;;;;;;;5027825;28;11530;-68
2023/02/01 16:20:14;;;;;;;;;13.00;11.00;;;;;;;;5027714;28;8801;-68
2023/02/01 16:22:40;;;;;;;;;11.50;8.75;;;;;;;;5011130;28;8820;-68
2023/02/01 16:25:05;;;;;;;;;11.00;11.00;;;;;;;;5030008;28;8866;-67
2023/02/01 16:27:31;;;;;;;;;11.75;10.50;;;;;;;;5029655;28;8819;-69
2023/02/01 16:29:56;;;;;;;;;10.50;10.50;;;;;;;;5029699;28;8836;-69
2023/02/01 16:32:22;;;;;;;;;9.50;8.25;;;;;;;;5029650;28;8811;-68
2023/02/01 16:34:47;;;;;;;;;11.00;9.50;;;;;;;;5029707;28;8948;-68
2023/02/01 16:37:20;;;;;;;;;11.00;11.00;;;;;;;;5029612;28;8824;-65
2023/02/01 16:39:46;;;;;;;;;14.75;12.00;;;;;;;;5029698;28;8847;-65
2023/02/01 16:42:12;;;;;;;;;14.50;11.50;;;;;;;;5029172;28;11510;-67
2023/02/01 16:44:37;;;;;;;;;14.00;12.00;;;;;;;;5029092;28;8816;-69
2023/02/01 16:47:03;;;;;;;;;14.25;14.25;;;;;;;;5028708;28;11493;-67
2023/02/01 16:49:28;;;;;;;;;18.75;17.00;;;;;;;;4954417;28;11543;-67
2023/02/01 16:51:56;;;;;;;;;18.00;14.75;;;;;;;;5010737;28;9568;-69
2023/02/01 16:54:22;;;;;;;;;18.50;16.75;;;;;;;;5017468;28;8822;-73
2023/02/01 16:56:47;;;;;;;;;20.00;18.50;;;;;;;;5012606;28;11616;-71
2023/02/01 16:59:13;;;;;;;;;19.50;18.00;;;;;;;;5030553;28;8812;-74
2023/02/01 17:01:40;;;;;;;;;23.00;16.75;;;;;;;;5030862;28;8815;-71
2023/02/01 17:04:05;;;;;;;;;17.75;17.00;;;;;;;;5030792;28;11594;-73
2023/02/01 17:06:32;;;;;;;;;12.00;11.50;;;;;;;;5030579;28;11583;-72
2023/02/01 17:08:58;;;;;;;;;12.00;9.50;;;;;;;;5030717;28;8840;-74
2023/02/01 17:11:23;;;;;;;;;12.75;10.25;;;;;;;;5030900;28;11552;-72
2023/02/01 17:13:48;;;;;;;;;13.50;11.00;;;;;;;;5011218;28;8803;-73
2023/02/01 17:16:20;;;;;;;;;12.50;12.50;;;;;;;;5017988;28;8805;-73
2023/02/01 17:19:06;;;;;;;;;11.25;9.50;;;;;;;;5030270;28;8776;-64
2023/02/01 17:21:38;;;;;;;;;23.00;19.25;;;;;;;;5030531;28;11581;-64
2023/02/01 17:24:03;;;;;;;;;18.75;18.00;;;;;;;;5001338;28;11508;-65
2023/02/01 17:26:28;;;;;;;;;33.50;28.50;;;;;;;;5010845;28;11584;-70
2023/02/01 17:28:54;;;;;;;;;32.75;28.00;;;;;;;;5010929;28;8949;-65
2023/02/01 17:31:19;;;;;;;;;25.00;23.25;;;;;;;;5014602;28;8820;-66
2023/02/01 17:33:45;;;;;;;;;23.50;21.50;;;;;;;;5010046;28;8816;-65
2023/02/01 17:36:12;;;;;;;;;24.50;22.25;;;;;;;;5009492;28;9664;-65
2023/02/01 17:38:37;;;;;;;;;23.25;22.50;;;;;;;;5010099;28;8851;-66
2023/02/01 17:41:02;;;;;;;;;19.50;17.50;;;;;;;;5010045;28;11700;-66
2023/02/01 17:43:28;;;;;;;;;24.00;16.75;;;;;;;;5010171;28;8842;-66
2023/02/01 17:45:54;;;;;;;;;21.50;19.50;;;;;;;;5008344;28;8816;-66
2023/02/01 17:48:20;;;;;;;;;21.75;17.75;;;;;;;;5009661;28;8823;-67
2023/02/01 17:50:47;;;;;;;;;21.50;20.75;;;;;;;;5009465;28;8887;-65
2023/02/01 17:53:12;;;;;;;;;21.50;18.75;;;;;;;;5008582;28;11580;-66
2023/02/01 17:55:40;;;;;;;;;30.50;28.00;;;;;;;;5008564;28;11476;-67
2023/02/01 17:58:06;;;;;;;;;27.50;24.75;;;;;;;;5008309;28;8807;-65
2023/02/01 18:00:31;;;;;;;;;26.25;21.00;;;;;;;;5008592;28;11555;-67
2023/02/01 18:02:56;;;;;;;;;29.75;24.00;;;;;;;;5009214;28;8823;-66
2023/02/01 18:05:39;;;;;;;;;24.00;20.50;;;;;;;;4999280;28;8829;-66
2023/02/01 18:08:04;;;;;;;;;25.00;22.00;;;;;;;;4997918;28;8805;-65
2023/02/01 18:10:29;;;;;;;;;26.25;22.00;;;;;;;;4997844;28;11627;-66
2023/02/01 18:12:56;;;;;;;;;34.00;32.00;;;;;;;;5007585;28;8980;-66
2023/02/01 18:15:22;;;;;;;;;22.75;20.00;;;;;;;;5007331;28;8956;-65
2023/02/01 18:17:47;;;;;;;;;28.50;21.50;;;;;;;;5007782;28;11545;-64
2023/02/01 18:20:14;;;;;;;;;32.00;29.00;;;;;;;;5007010;28;11515;-67
2023/02/01 18:22:40;;;;;;;;;36.33;30.67;;;;;;;;5007617;28;8919;-67
2023/02/01 18:25:15;;;;;;;;;47.33;40.00;;;;;;;;5007611;28;11548;-65
2023/02/01 18:27:40;;;;;;;;;30.00;30.00;;;;;;;;4990918;28;8880;-65
2023/02/01 18:30:06;;;;;;;;;49.67;43.33;;;;;;;;5008315;28;8832;-66
2023/02/01 18:32:31;;;;;;;;;52.67;47.00;;;;;;;;4990963;28;8827;-66
2023/02/01 18:34:57;;;;;;;;;58.00;50.00;;;;;;;;5008597;28;8921;-67
2023/02/01 18:37:22;;;;;;;;;48.67;42.33;;;;;;;;5008794;28;8783;-69
2023/02/01 18:39:47;;;;;;;;;57.33;47.00;;;;;;;;5008244;28;9013;-64
2023/02/01 18:42:12;;;;;;;;;53.00;45.00;;;;;;;;5008935;28;9536;-67
2023/02/01 18:44:38;;;;;;;;;58.00;50.00;;;;;;;;5009278;28;8814;-66
2023/02/01 18:47:03;;;;;;;;;58.00;50.67;;;;;;;;5020992;28;8820;-65
2023/02/01 18:49:28;;;;;;;;;65.67;52.00;;;;;;;;4997392;28;8957;-64
2023/02/01 18:51:53;;;;;;;;;69.00;54.67;;;;;;;;5007715;28;8853;-65
2023/02/01 18:54:19;;;;;;;;;71.33;55.00;;;;;;;;5008216;28;8803;-65
2023/02/01 18:56:44;;;;;;;;;64.00;50.33;;;;;;;;5009079;28;8906;-65
2023/02/01 18:59:10;;;;;;;;;65.00;50.33;;;;;;;;5007654;28;8851;-63
2023/02/01 19:01:36;;;;;;;;;59.33;51.00;;;;;;;;5008492;28;8820;-66
2023/02/01 19:04:01;;;;;;;;;70.00;51.67;;;;;;;;5014193;28;8849;-63
2023/02/01 19:06:26;;;;;;;;;61.33;53.33;;;;;;;;5008541;28;8834;-64
2023/02/01 19:08:53;;;;;;;;;54.00;48.67;;;;;;;;5007122;28;8989;-66
2023/02/01 19:11:18;;;;;;;;;67.67;55.33;;;;;;;;5009125;28;8871;-65
2023/02/01 19:13:44;;;;;;;;;69.00;57.67;;;;;;;;5008943;28;8818;-65
2023/02/01 19:16:11;;;;;;;;;73.33;61.00;;;;;;;;5015380;28;9558;-65
2023/02/01 19:18:37;;;;;;;;;74.00;60.33;;;;;;;;5025273;28;8846;-70
2023/02/01 19:21:09;;;;;;;;;77.00;60.00;;;;;;;;5029062;28;8894;-68
2023/02/01 19:23:37;;;;;;;;;69.67;59.00;;;;;;;;5029090;28;8801;-67
2023/02/01 19:26:02;;;;;;;;;72.00;59.00;;;;;;;;5023876;28;8848;-65
2023/02/01 19:28:27;;;;;;;;;72.00;58.33;;;;;;;;5014436;28;8837;-67
2023/02/01 19:31:03;;;;;;;;;61.00;50.67;;;;;;;;5017767;28;8802;-66
2023/02/01 19:33:28;;;;;;;;;69.00;53.00;;;;;;;;5008679;28;8814;-66
2023/02/01 19:36:02;;;;;;;;;65.67;53.00;;;;;;;;5009288;28;8885;-65
2023/02/01 19:38:27;;;;;;;;;71.00;52.67;;;;;;;;5007604;28;8835;-64
2023/02/01 19:40:54;;;;;;;;;65.00;55.00;;;;;;;;5009060;28;8849;-66
2023/02/01 19:43:19;;;;;;;;;68.00;55.00;;;;;;;;5016637;28;8919;-66
2023/02/01 19:45:45;;;;;;;;;37.33;33.00;;;;;;;;5018510;28;8998;-67
2023/02/01 19:48:12;;;;;;;;;61.00;46.00;;;;;;;;4993162;28;8807;-65
2023/02/01 19:50:37;;;;;;;;;58.33;51.67;;;;;;;;5011014;28;8853;-67
2023/02/01 19:53:02;;;;;;;;;53.33;48.00;;;;;;;;5012384;28;8822;-72
2023/02/01 19:55:28;;;;;;;;;53.00;47.67;;;;;;;;4994379;28;8822;-66
2023/02/01 19:57:53;;;;;;;;;52.67;47.67;;;;;;;;5019554;28;8809;-65
2023/02/01 20:00:21;;;;;;;;;60.67;48.67;;;;;;;;5028505;28;8970;-65
2023/02/01 20:02:46;;;;;;;;;62.67;48.67;;;;;;;;5031983;28;8830;-66
2023/02/01 20:05:12;;;;;;;;;67.33;52.67;;;;;;;;5032383;28;8788;-65
2023/02/01 20:07:37;;;;;;;;;62.33;48.00;;;;;;;;5032121;28;9550;-65
2023/02/01 20:10:03;;;;;;;;;62.33;50.00;;;;;;;;5012547;28;8909;-64
2023/02/01 20:12:28;;;;;;;;;64.67;53.67;;;;;;;;4992857;28;8811;-65
2023/02/01 20:14:55;;;;;;;;;73.00;57.33;;;;;;;;5010604;28;8844;-64
2023/02/01 20:17:20;;;;;;;;;69.50;55.00;;;;;;;;5009434;28;8904;-65
2023/02/01 20:19:45;;;;;;;;;75.25;56.75;;;;;;;;5009470;28;8811;-65
2023/02/01 20:22:11;;;;;;;;;77.75;63.50;;;;;;;;5010552;28;8817;-67
2023/02/01 20:24:38;;;;;;;;;78.25;61.25;;;;;;;;5009745;28;8822;-65
2023/02/01 20:27:04;;;;;;;;;80.50;65.00;;;;;;;;5010404;28;8791;-63
2023/02/01 20:29:29;;;;;;;;;80.50;63.00;;;;;;;;5008740;28;8926;-65
2023/02/01 20:31:54;;;;;;;;;146.00;132.25;;;;;;;;5011474;28;8791;-64
2023/02/01 20:34:20;;;;;;;;;93.00;75.00;;;;;;;;5002793;28;8797;-64
2023/02/01 20:36:45;;;;;;;;;89.25;72.00;;;;;;;;5001883;28;8901;-65
2023/02/01 20:39:11;;;;;;;;;84.00;67.25;;;;;;;;4990175;28;9549;-64
2023/02/01 20:41:36;;;;;;;;;80.00;63.25;;;;;;;;5010026;28;8787;-66
2023/02/01 20:44:02;;;;;;;;;74.50;59.25;;;;;;;;5010245;28;9521;-65
2023/02/01 20:46:27;;;;;;;;;76.00;58.00;;;;;;;;5019594;28;8820;-66
2023/02/01 20:48:52;;;;;;;;;73.50;58.75;;;;;;;;5029832;28;8805;-66
2023/02/01 20:51:19;;;;;;;;;73.25;59.00;;;;;;;;5010763;28;8798;-67
2023/02/01 20:53:46;;;;;;;;;76.75;56.50;;;;;;;;5009450;28;8811;-66
2023/02/01 20:56:12;;;;;;;;;72.50;59.50;;;;;;;;5009352;28;8857;-67
2023/02/01 20:58:37;;;;;;;;;81.25;62.75;;;;;;;;5009293;28;9549;-70
2023/02/01 21:01:03;;;;;;;;;75.25;60.25;;;;;;;;5009223;28;8815;-66
2023/02/01 21:03:28;;;;;;;;;70.25;58.25;;;;;;;;5008825;28;8810;-65
2023/02/01 21:05:56;;;;;;;;;69.50;56.75;;;;;;;;4991321;28;8814;-67
2023/02/01 21:08:21;;;;;;;;;65.50;51.00;;;;;;;;4974536;28;9564;-66
2023/02/01 21:10:56;;;;;;;;;61.00;52.25;;;;;;;;5004812;28;8853;-65
2023/02/01 21:13:22;;;;;;;;;66.33;52.33;;;;;;;;4991523;28;9068;-66
2023/02/01 21:15:47;;;;;;;;;66.67;53.33;;;;;;;;5009608;28;8957;-66
2023/02/01 21:18:12;;;;;;;;;67.25;56.00;;;;;;;;5009082;28;8881;-66
2023/02/01 21:20:38;;;;;;;;;70.50;58.50;;;;;;;;4992056;28;8892;-67